Time,TemperatureF,DewpointF,PressureIn,WindDirection,WindDirectionDegrees,WindSpeedMPH,WindSpeedGustMPH,Humidity,HourlyPrecipIn,Conditions,Clouds,dailyrainin,SoftwareType,DateUTC
2013-05-14 00:00:00,54.3,53.8,29.94,West,268,8.0,13.0,98,0.00,CLR,,0.00,WeatherDisplay:10.37,2013-05-14 07:00:00,
2013-05-14 00:15:00,54.0,53.4,29.94,West,273,6.0,12.0,98,0.00,CLR,,0.00,WeatherDisplay:10.37,2013-05-14 07:15:00,
2013-05-14 00:30:00,54.0,53.4,29.94,WSW,246,5.0,9.0,98,0.00,CLR,,0.00,WeatherDisplay:10.37,2013-05-14 07:30:00,
2013-05-14 00:45:00,53.6,53.0,29.94,WSW,248,10.0,14.0,98,0.00,CLR,,0.00,WeatherDisplay:10.37,2013-05-14 07:45:00,
2013-05-14 01:00:00,53.6,53.0,29.94,WSW,246,8.0,14.0,98,0.00,CLR,,0.00,WeatherDisplay:10.37,2013-05-14 08:00:00,
2013-05-14 01:15:00,53.4,52.9,29.94,West,266,8.0,15.0,98,0.00,CLR,,0.00,WeatherDisplay:10.37,2013-05-14 08:15:00,
2013-05-14 01:30:00,53.4,52.9,29.94,WNW,286,13.0,15.0,98,0.00,CLR,,0.00,WeatherDisplay:10.37,2013-05-14 08:30:00,
2013-05-14 01:45:00,53.1,52.5,29.91,West,270,6.0,15.0,98,0.00,CLR,,0.00,WeatherDisplay:10.37,2013-05-14 08:45:00,
2013-05-14 02:00:00,53.1,52.5,29.91,WSW,243,9.0,12.0,98,0.00,CLR,,0.00,WeatherDisplay:10.37,2013-05-14 09:00:00,
2013-05-14 02:15:00,53.1,52.5,29.91,WSW,255,6.0,10.0,98,0.00,CLR,,0.00,WeatherDisplay:10.37,2013-05-14 09:15:00,
2013-05-14 02:30:00,53.1,52.5,29.91,WNW,289,14.0,20.0,98,0.00,CLR,,0.00,WeatherDisplay:10.37,2013-05-14 09:30:00,
2013-05-14 02:45:00,53.1,52.5,29.91,WNW,288,15.0,18.0,98,0.00,CLR,,0.00,WeatherDisplay:10.37,2013-05-14 09:45:00,
2013-05-14 03:00:00,53.1,52.5,29.91,WNW,292,18.0,23.0,98,0.00,CLR,,0.00,WeatherDisplay:10.37,2013-05-14 10:00:00,
2013-05-14 03:15:00,52.9,52.3,29.91,WNW,292,15.0,22.0,98,0.00,CLR,,0.00,WeatherDisplay:10.37,2013-05-14 10:15:00,
2013-05-14 03:30:00,52.9,52.3,29.88,WNW,292,16.0,19.0,98,0.00,CLR,,0.00,WeatherDisplay:10.37,2013-05-14 10:30:00,
2013-05-14 03:45:00,53.1,52.5,29.91,WNW,292,16.0,20.0,98,0.00,CLR,,0.00,WeatherDisplay:10.37,2013-05-14 10:45:00,
2013-05-14 04:00:00,52.9,52.3,29.91,WNW,290,14.0,19.0,98,0.00,CLR,,0.00,WeatherDisplay:10.37,2013-05-14 11:00:00,
2013-05-14 04:15:00,52.9,52.3,29.91,WNW,292,12.0,17.0,98,0.00,CLR,,0.00,WeatherDisplay:10.37,2013-05-14 11:15:00,
2013-05-14 04:30:00,52.7,52.2,29.91,West,274,6.0,13.0,98,0.00,CLR,,0.00,WeatherDisplay:10.37,2013-05-14 11:30:00,
2013-05-14 04:45:00,53.1,52.5,29.88,WNW,290,10.0,14.0,98,0.00,CLR,,0.00,WeatherDisplay:10.37,2013-05-14 11:45:00,
2013-05-14 05:00:00,52.9,52.3,29.88,WNW,291,9.0,10.0,98,0.00,CLR,,0.00,WeatherDisplay:10.37,2013-05-14 12:00:00,
2013-05-14 05:15:00,52.9,52.3,29.88,WNW,289,10.0,12.0,98,0.00,CLR,,0.00,WeatherDisplay:10.37,2013-05-14 12:15:00,
2013-05-14 05:30:00,52.9,52.3,29.91,WNW,292,6.0,10.0,98,0.00,CLR,,0.00,WeatherDisplay:10.37,2013-05-14 12:30:00,
2013-05-14 05:45:00,52.9,52.3,29.91,WNW,292,5.0,7.0,98,0.00,CLR,,0.00,WeatherDisplay:10.37,2013-05-14 12:45:00,
2013-05-14 06:00:00,52.1,51.5,29.88,ESE,110,7.0,7.0,98,0.00,CLR,,0.00,WeatherDisplay:10.37,2013-05-14 13:00:00,
2013-05-14 06:15:00,52.0,51.4,29.91,South,189,2.0,6.0,98,0.00,CLR,,0.00,WeatherDisplay:10.37,2013-05-14 13:15:00,
2013-05-14 06:30:00,52.2,51.6,29.91,ESE,108,2.0,6.0,98,0.00,CLR,,0.00,WeatherDisplay:10.37,2013-05-14 13:30:00,
2013-05-14 06:45:00,53.8,53.2,29.91,East,96,3.0,5.0,98,0.00,CLR,,0.00,WeatherDisplay:10.37,2013-05-14 13:45:00,
2013-05-14 07:00:00,55.4,54.8,29.91,ESE,110,5.0,7.0,98,0.00,CLR,,0.00,WeatherDisplay:10.37,2013-05-14 14:00:00,
2013-05-14 07:15:00,57.1,56.6,29.91,SE,129,5.0,9.0,98,0.00,CLR,,0.00,WeatherDisplay:10.37,2013-05-14 14:15:00,
2013-05-14 07:30:00,58.2,57.7,29.91,SE,125,7.0,10.0,98,0.00,CLR,,0.00,WeatherDisplay:10.37,2013-05-14 14:30:00,
2013-05-14 07:44:00,59.4,58.9,29.91,SE,132,5.0,10.0,98,0.00,CLR,,0.00,WeatherDisplay:10.37,2013-05-14 14:44:00,
2013-05-14 08:00:00,61.4,60.8,29.91,SE,143,6.0,8.0,98,0.00,CLR,,0.00,WeatherDisplay:10.37,2013-05-14 15:00:00,
2013-05-14 08:14:00,61.9,61.3,29.91,South,177,7.0,11.0,98,0.00,CLR,,0.00,WeatherDisplay:10.37,2013-05-14 15:14:00,
2013-05-14 08:29:00,61.7,60.8,29.94,SSW,209,7.0,11.0,97,0.00,CLR,,0.00,WeatherDisplay:10.37,2013-05-14 15:29:00,
2013-05-14 08:44:00,62.4,61.6,29.94,WSW,256,5.0,9.0,97,0.00,CLR,,0.00,WeatherDisplay:10.37,2013-05-14 15:44:00,
2013-05-14 09:00:00,64.2,63.1,29.94,WSW,245,3.0,7.0,96,0.00,CLR,,0.00,WeatherDisplay:10.37,2013-05-14 16:00:00,
2013-05-14 09:14:00,65.7,63.9,29.94,West,260,2.0,6.0,94,0.00,CLR,,0.00,WeatherDisplay:10.37,2013-05-14 16:14:00,
2013-05-14 09:29:00,66.7,64.3,29.94,SW,223,5.0,6.0,92,0.00,CLR,,0.00,WeatherDisplay:10.37,2013-05-14 16:29:00,
2013-05-14 09:44:00,65.6,62.3,29.94,SSW,192,5.0,8.0,89,0.00,CLR,,0.00,WeatherDisplay:10.37,2013-05-14 16:44:00,
2013-05-14 10:00:00,64.0,60.4,29.94,West,273,6.0,10.0,88,0.00,CLR,,0.00,WeatherDisplay:10.37,2013-05-14 17:00:00,
2013-05-14 10:14:00,61.9,59.2,29.94,WNW,290,8.0,10.0,91,0.00,CLR,,0.00,WeatherDisplay:10.37,2013-05-14 17:14:00,
2013-05-14 10:29:00,64.0,61.6,29.94,West,272,5.0,9.0,92,0.00,CLR,,0.00,WeatherDisplay:10.37,2013-05-14 17:29:00,
2013-05-14 10:44:00,64.0,61.0,29.94,West,263,7.0,10.0,90,0.00,CLR,,0.00,WeatherDisplay:10.37,2013-05-14 17:44:00,
2013-05-14 11:00:00,62.1,59.7,29.94,West,276,8.0,13.0,92,0.00,CLR,,0.00,WeatherDisplay:10.37,2013-05-14 18:00:00,
2013-05-14 11:14:00,61.2,59.1,29.97,West,280,13.0,15.0,93,0.00,CLR,,0.00,WeatherDisplay:10.37,2013-05-14 18:14:00,
2013-05-14 11:29:00,61.2,59.1,29.94,West,274,10.0,15.0,93,0.00,CLR,,0.00,WeatherDisplay:10.37,2013-05-14 18:29:00,
2013-05-14 11:44:00,62.7,60.4,29.97,WSW,247,8.0,13.0,92,0.00,CLR,,0.00,WeatherDisplay:10.37,2013-05-14 18:44:00,
2013-05-14 12:00:00,62.9,59.9,29.97,WSW,252,9.0,14.0,90,0.00,CLR,,0.00,WeatherDisplay:10.37,2013-05-14 19:00:00,
2013-05-14 12:14:00,62.8,59.8,29.97,WSW,251,9.0,13.0,90,0.00,CLR,,0.00,WeatherDisplay:10.37,2013-05-14 19:14:00,
2013-05-14 12:29:00,62.6,59.9,29.97,WSW,244,10.0,13.0,91,0.00,CLR,,0.00,WeatherDisplay:10.37,2013-05-14 19:29:00,
2013-05-14 12:44:00,62.4,59.8,29.97,WSW,243,13.0,15.0,91,0.00,CLR,,0.00,WeatherDisplay:10.37,2013-05-14 19:44:00,
2013-05-14 13:00:00,61.9,59.2,29.97,SW,235,13.0,17.0,91,0.00,CLR,,0.00,WeatherDisplay:10.37,2013-05-14 20:00:00,
2013-05-14 13:14:00,62.0,59.3,29.97,WSW,238,13.0,16.0,91,0.00,CLR,,0.00,WeatherDisplay:10.37,2013-05-14 20:14:00,
2013-05-14 13:29:00,62.1,59.4,29.97,WSW,241,14.0,18.0,91,0.00,CLR,,0.00,WeatherDisplay:10.37,2013-05-14 20:29:00,
2013-05-14 13:44:00,62.4,59.4,29.97,WSW,238,14.0,17.0,90,0.00,CLR,,0.00,WeatherDisplay:10.37,2013-05-14 20:44:00,
2013-05-14 13:59:00,62.2,59.3,29.94,WSW,246,13.0,16.0,90,0.00,CLR,,0.00,WeatherDisplay:10.37,2013-05-14 20:59:00,
2013-05-14 14:14:00,62.5,59.2,29.97,WSW,239,13.0,17.0,89,0.00,CLR,,0.00,WeatherDisplay:10.37,2013-05-14 21:14:00,
2013-05-14 14:29:00,62.4,59.1,29.94,WSW,245,13.0,20.0,89,0.00,CLR,,0.00,WeatherDisplay:10.37,2013-05-14 21:29:00,
2013-05-14 14:44:00,62.6,59.0,29.94,WSW,242,13.0,18.0,88,0.00,CLR,,0.00,WeatherDisplay:10.37,2013-05-14 21:44:00,
2013-05-14 15:00:00,62.6,59.0,29.94,WSW,248,14.0,19.0,88,0.00,CLR,,0.00,WeatherDisplay:10.37,2013-05-14 22:00:00,
2013-05-14 15:14:00,62.8,58.9,29.94,WSW,242,14.0,18.0,87,0.00,CLR,,0.00,WeatherDisplay:10.37,2013-05-14 22:14:00,
2013-05-14 15:29:00,63.0,58.7,29.94,WSW,248,13.0,18.0,86,0.00,CLR,,0.00,WeatherDisplay:10.37,2013-05-14 22:29:00,
2013-05-14 15:44:00,63.1,58.6,29.94,WSW,247,14.0,20.0,85,0.00,CLR,,0.00,WeatherDisplay:10.37,2013-05-14 22:44:00,
2013-05-14 15:59:00,63.0,58.4,29.94,WSW,243,13.0,18.0,85,0.00,CLR,,0.00,WeatherDisplay:10.37,2013-05-14 22:59:00,
2013-05-14 16:14:00,63.5,58.9,29.94,WSW,238,14.0,17.0,85,0.00,CLR,,0.00,WeatherDisplay:10.37,2013-05-14 23:14:00,
2013-05-14 16:29:00,63.3,58.0,29.94,WSW,243,14.0,17.0,83,0.00,CLR,,0.00,WeatherDisplay:10.37,2013-05-14 23:29:00,
2013-05-14 16:44:00,63.5,57.9,29.94,WSW,240,13.0,17.0,82,0.00,CLR,,0.00,WeatherDisplay:10.37,2013-05-14 23:44:00,
2013-05-14 16:59:00,63.1,57.2,29.94,SW,236,15.0,16.0,81,0.00,CLR,,0.00,WeatherDisplay:10.37,2013-05-14 23:59:00,
2013-05-14 17:14:00,62.9,57.0,29.94,WSW,242,14.0,18.0,81,0.00,CLR,,0.00,WeatherDisplay:10.37,2013-05-15 00:14:00,
2013-05-14 17:29:00,62.6,57.0,29.94,SW,222,14.0,15.0,82,0.00,CLR,,0.00,WeatherDisplay:10.37,2013-05-15 00:29:00,
2013-05-14 17:44:00,63.1,56.9,29.97,WSW,243,10.0,14.0,80,0.00,CLR,,0.00,WeatherDisplay:10.37,2013-05-15 00:44:00,
2013-05-14 17:59:00,62.8,56.2,29.97,West,260,10.0,17.0,79,0.00,CLR,,0.00,WeatherDisplay:10.37,2013-05-15 00:59:00,
2013-05-14 18:14:00,59.2,55.0,29.94,WNW,292,25.0,32.0,86,0.00,CLR,,0.00,WeatherDisplay:10.37,2013-05-15 01:14:00,
2013-05-14 18:29:00,58.5,54.9,29.94,WNW,290,28.0,32.0,88,0.00,CLR,,0.00,WeatherDisplay:10.37,2013-05-15 01:29:00,
2013-05-14 18:44:00,58.1,55.2,29.94,WNW,283,22.0,30.0,90,0.00,CLR,,0.00,WeatherDisplay:10.37,2013-05-15 01:44:00,
2013-05-14 18:59:00,57.7,55.4,29.94,WNW,292,24.0,32.0,92,0.00,CLR,,0.00,WeatherDisplay:10.37,2013-05-15 01:59:00,
2013-05-14 19:14:00,57.2,55.5,29.94,WNW,292,30.0,33.0,94,0.00,,,0.00,WeatherDisplay:10.37,2013-05-15 02:14:00,
2013-05-14 19:29:00,56.7,55.3,29.94,WNW,292,28.0,35.0,95,0.00,,,0.00,WeatherDisplay:10.37,2013-05-15 02:29:00,
2013-05-14 19:44:00,56.3,55.5,29.94,WNW,292,28.0,32.0,97,0.00,,,0.00,WeatherDisplay:10.37,2013-05-15 02:44:00,
2013-05-14 19:59:00,55.6,55.0,29.94,WNW,292,26.0,36.0,98,0.00,CLR,,0.00,WeatherDisplay:10.37,2013-05-15 02:59:00,
2013-05-14 20:14:00,54.9,54.3,29.94,WNW,292,28.0,32.0,98,0.00,CLR,,0.00,WeatherDisplay:10.37,2013-05-15 03:14:00,
2013-05-14 20:29:00,54.5,53.9,29.94,WNW,292,23.0,31.0,98,0.00,CLR,,0.00,WeatherDisplay:10.37,2013-05-15 03:29:00,
2013-05-14 20:44:00,54.2,53.7,29.97,WNW,288,21.0,29.0,98,0.00,CLR,,0.00,WeatherDisplay:10.37,2013-05-15 03:44:00,
2013-05-14 20:59:00,54.0,53.4,29.97,WNW,282,14.0,26.0,98,0.00,CLR,,0.00,WeatherDisplay:10.37,2013-05-15 03:59:00,
2013-05-14 21:14:00,53.8,53.2,29.97,West,275,16.0,26.0,98,0.00,CLR,,0.00,WeatherDisplay:10.37,2013-05-15 04:14:00,
2013-05-14 21:29:00,53.6,53.0,29.97,West,273,14.0,24.0,98,0.00,CLR,,0.00,WeatherDisplay:10.37,2013-05-15 04:29:00,
2013-05-14 21:44:00,53.4,52.9,29.97,West,271,13.0,20.0,98,0.00,CLR,,0.00,WeatherDisplay:10.37,2013-05-15 04:44:00,
2013-05-14 21:59:00,53.3,52.8,29.97,West,267,13.0,21.0,98,0.00,CLR,,0.00,WeatherDisplay:10.37,2013-05-15 04:59:00,
2013-05-14 22:14:00,53.2,52.7,29.97,West,274,13.0,23.0,98,0.00,CLR,,0.00,WeatherDisplay:10.37,2013-05-15 05:14:00,
2013-05-14 22:29:00,53.2,52.7,29.97,West,275,18.0,25.0,98,0.00,CLR,,0.00,WeatherDisplay:10.37,2013-05-15 05:29:00,
2013-05-14 22:44:00,53.1,52.5,29.97,WNW,285,22.0,27.0,98,0.00,CLR,,0.00,WeatherDisplay:10.37,2013-05-15 05:44:00,
2013-05-14 22:59:00,53.1,52.5,29.97,WNW,290,23.0,28.0,98,0.00,CLR,,0.00,WeatherDisplay:10.37,2013-05-15 05:59:00,
2013-05-14 23:14:00,53.1,52.5,29.97,WNW,292,21.0,28.0,98,0.00,CLR,,0.00,WeatherDisplay:10.37,2013-05-15 06:14:00,
2013-05-14 23:29:00,52.9,52.3,29.97,WNW,292,23.0,26.0,98,0.00,CLR,,0.00,WeatherDisplay:10.37,2013-05-15 06:29:00,
2013-05-14 23:44:00,52.7,52.2,29.97,WNW,292,20.0,26.0,98,0.00,CLR,,0.00,WeatherDisplay:10.37,2013-05-15 06:44:00,
2013-05-14 23:59:00,52.5,52.0,29.97,WNW,291,23.0,26.0,98,0.00,CLR,,0.00,WeatherDisplay:10.37,2013-05-15 06:59:00,